sensor_id;sensor_type;location;lat;lon;timestamp;temperature;humidity
7427;DHT22;3755;59.316;18.092;2023-02-01T00:00:03;-1.40;99.90
7427;DHT22;3755;59.316;18.092;2023-02-01T00:02:46;-1.40;99.90
7427;DHT22;3755;59.316;18.092;2023-02-01T00:05:16;-1.30;99.90
7427;DHT22;3755;59.316;18.092;2023-02-01T00:07:47;-1.40;99.90
7427;DHT22;3755;59.316;18.092;2023-02-01T00:10:31;-1.50;99.90
7427;DHT22;3755;59.316;18.092;2023-02-01T00:13:00;-1.60;99.90
7427;DHT22;3755;59.316;18.092;2023-02-01T00:15:27;-1.70;99.90
7427;DHT22;3755;59.316;18.092;2023-02-01T00:17:59;-1.70;99.90
7427;DHT22;3755;59.316;18.092;2023-02-01T00:20:45;-1.60;99.90
7427;DHT22;3755;59.316;18.092;2023-02-01T00:23:17;-1.60;99.90
7427;DHT22;3755;59.316;18.092;2023-02-01T00:25:53;-1.60;99.90
7427;DHT22;3755;59.316;18.092;2023-02-01T00:28:38;-1.60;99.90
7427;DHT22;3755;59.316;18.092;2023-02-01T00:31:07;-1.70;99.90
7427;DHT22;3755;59.316;18.092;2023-02-01T00:33:37;-1.70;99.90
7427;DHT22;3755;59.316;18.092;2023-02-01T00:36:08;-1.50;99.90
7427;DHT22;3755;59.316;18.092;2023-02-01T00:38:38;-1.50;99.90
7427;DHT22;3755;59.316;18.092;2023-02-01T00:41:13;-1.40;99.90
7427;DHT22;3755;59.316;18.092;2023-02-01T00:43:50;-1.50;99.90
7427;DHT22;3755;59.316;18.092;2023-02-01T00:46:19;-1.60;99.90
7427;DHT22;3755;59.316;18.092;2023-02-01T00:48:49;-1.60;99.90
7427;DHT22;3755;59.316;18.092;2023-02-01T00:51:33;-1.60;99.90
7427;DHT22;3755;59.316;18.092;2023-02-01T00:54:05;-1.60;99.90
7427;DHT22;3755;59.316;18.092;2023-02-01T00:56:36;-1.50;99.90
7427;DHT22;3755;59.316;18.092;2023-02-01T00:59:17;-1.40;99.90
7427;DHT22;3755;59.316;18.092;2023-02-01T01:01:45;-1.50;99.90
7427;DHT22;3755;59.316;18.092;2023-02-01T01:04:17;-1.20;99.90
7427;DHT22;3755;59.316;18.092;2023-02-01T01:06:45;-1.10;99.90
7427;DHT22;3755;59.316;18.092;2023-02-01T01:09:13;-1.10;99.90
7427;DHT22;3755;59.316;18.092;2023-02-01T01:11:41;-1.20;99.90
7427;DHT22;3755;59.316;18.092;2023-02-01T01:14:11;-1.20;99.90
7427;DHT22;3755;59.316;18.092;2023-02-01T01:16:38;-1.20;99.90
7427;DHT22;3755;59.316;18.092;2023-02-01T01:19:07;-1.20;99.90
7427;DHT22;3755;59.316;18.092;2023-02-01T01:21:39;-1.10;99.90
7427;DHT22;3755;59.316;18.092;2023-02-01T01:24:09;-1.00;99.90
7427;DHT22;3755;59.316;18.092;2023-02-01T01:26:36;-1.00;99.90
7427;DHT22;3755;59.316;18.092;2023-02-01T01:29:05;-0.90;99.90
7427;DHT22;3755;59.316;18.092;2023-02-01T01:31:34;-1.00;99.90
7427;DHT22;3755;59.316;18.092;2023-02-01T01:34:03;-1.00;99.90
7427;DHT22;3755;59.316;18.092;2023-02-01T01:36:30;-1.00;99.90
7427;DHT22;3755;59.316;18.092;2023-02-01T01:39:01;-0.80;99.90
7427;DHT22;3755;59.316;18.092;2023-02-01T01:41:31;-0.80;99.90
7427;DHT22;3755;59.316;18.092;2023-02-01T01:44:00;-0.80;99.90
7427;DHT22;3755;59.316;18.092;2023-02-01T01:46:30;-0.70;99.90
7427;DHT22;3755;59.316;18.092;2023-02-01T01:49:04;-0.70;99.90
7427;DHT22;3755;59.316;18.092;2023-02-01T01:51:36;-0.70;99.90
7427;DHT22;3755;59.316;18.092;2023-02-01T01:54:16;-0.70;99.90
7427;DHT22;3755;59.316;18.092;2023-02-01T01:56:50;-0.70;99.90
7427;DHT22;3755;59.316;18.092;2023-02-01T01:59:19;-0.70;99.90
7427;DHT22;3755;59.316;18.092;2023-02-01T02:01:48;-1.10;99.90
7427;DHT22;3755;59.316;18.092;2023-02-01T02:04:19;-0.60;99.90
7427;DHT22;3755;59.316;18.092;2023-02-01T02:06:50;-0.60;99.90
7427;DHT22;3755;59.316;18.092;2023-02-01T02:09:21;-0.60;99.90
7427;DHT22;3755;59.316;18.092;2023-02-01T02:11:54;-0.70;99.90
7427;DHT22;3755;59.316;18.092;2023-02-01T02:14:29;-0.70;99.90
7427;DHT22;3755;59.316;18.092;2023-02-01T02:17:28;-0.70;99.90
7427;DHT22;3755;59.316;18.092;2023-02-01T02:20:39;-0.80;99.90
7427;DHT22;3755;59.316;18.092;2023-02-01T02:29:47;-0.70;99.90
7427;DHT22;3755;59.316;18.092;2023-02-01T02:32:59;-0.60;99.90
7427;DHT22;3755;59.316;18.092;2023-02-01T02:35:48;-0.70;99.90
7427;DHT22;3755;59.316;18.092;2023-02-01T02:38:25;-0.70;99.90
7427;DHT22;3755;59.316;18.092;2023-02-01T02:41:10;-0.60;99.90
7427;DHT22;3755;59.316;18.092;2023-02-01T02:43:59;-0.60;99.90
7427;DHT22;3755;59.316;18.092;2023-02-01T02:46:49;-0.60;99.90
7427;DHT22;3755;59.316;18.092;2023-02-01T02:49:40;-0.70;99.90
7427;DHT22;3755;59.316;18.092;2023-02-01T02:52:15;-0.60;99.90
7427;DHT22;3755;59.316;18.092;2023-02-01T02:55:01;-0.60;99.90
7427;DHT22;3755;59.316;18.092;2023-02-01T02:57:34;-0.60;99.90
7427;DHT22;3755;59.316;18.092;2023-02-01T03:00:24;-0.60;99.90
7427;DHT22;3755;59.316;18.092;2023-02-01T03:03:09;-0.70;99.90
7427;DHT22;3755;59.316;18.092;2023-02-01T03:05:54;-0.70;99.90
7427;DHT22;3755;59.316;18.092;2023-02-01T03:08:25;-0.70;99.90
7427;DHT22;3755;59.316;18.092;2023-02-01T03:10:58;-0.80;99.90
7427;DHT22;3755;59.316;18.092;2023-02-01T03:13:33;-0.80;99.90
7427;DHT22;3755;59.316;18.092;2023-02-01T03:16:07;-0.80;99.90
7427;DHT22;3755;59.316;18.092;2023-02-01T03:18:42;-0.80;99.90
7427;DHT22;3755;59.316;18.092;2023-02-01T03:21:16;-0.50;99.90
7427;DHT22;3755;59.316;18.092;2023-02-01T03:23:50;-0.80;99.90
7427;DHT22;3755;59.316;18.092;2023-02-01T03:26:22;-0.90;99.90
7427;DHT22;3755;59.316;18.092;2023-02-01T03:28:55;-0.90;99.90
7427;DHT22;3755;59.316;18.092;2023-02-01T03:31:25;-1.00;99.90
7427;DHT22;3755;59.316;18.092;2023-02-01T03:33:57;-1.10;99.90
7427;DHT22;3755;59.316;18.092;2023-02-01T03:36:28;-1.10;99.90
7427;DHT22;3755;59.316;18.092;2023-02-01T03:39:03;-1.00;99.90
7427;DHT22;3755;59.316;18.092;2023-02-01T03:41:37;-1.00;99.90
7427;DHT22;3755;59.316;18.092;2023-02-01T03:44:13;-1.00;99.90
7427;DHT22;3755;59.316;18.092;2023-02-01T03:46:45;-0.90;99.90
7427;DHT22;3755;59.316;18.092;2023-02-01T03:49:18;-0.90;99.90
7427;DHT22;3755;59.316;18.092;2023-02-01T03:51:47;-0.80;99.90
7427;DHT22;3755;59.316;18.092;2023-02-01T03:54:19;-0.80;99.90
7427;DHT22;3755;59.316;18.092;2023-02-01T03:56:48;-0.80;99.90
7427;DHT22;3755;59.316;18.092;2023-02-01T03:59:18;-0.90;99.90
7427;DHT22;3755;59.316;18.092;2023-02-01T04:01:46;-0.80;99.90
7427;DHT22;3755;59.316;18.092;2023-02-01T04:04:13;-0.90;99.90
7427;DHT22;3755;59.316;18.092;2023-02-01T04:06:45;-0.90;99.90
7427;DHT22;3755;59.316;18.092;2023-02-01T04:09:13;-0.90;99.90
7427;DHT22;3755;59.316;18.092;2023-02-01T04:11:41;-0.90;99.90
7427;DHT22;3755;59.316;18.092;2023-02-01T04:14:09;-0.80;99.90
7427;DHT22;3755;59.316;18.092;2023-02-01T04:16:37;-0.80;99.90
7427;DHT22;3755;59.316;18.092;2023-02-01T04:19:09;-0.80;99.90
7427;DHT22;3755;59.316;18.092;2023-02-01T04:21:38;-0.80;99.90
7427;DHT22;3755;59.316;18.092;2023-02-01T04:24:06;-0.80;99.90
7427;DHT22;3755;59.316;18.092;2023-02-01T04:26:36;-0.80;99.90
7427;DHT22;3755;59.316;18.092;2023-02-01T04:29:05;-0.70;99.90
7427;DHT22;3755;59.316;18.092;2023-02-01T04:31:32;-0.70;99.90
7427;DHT22;3755;59.316;18.092;2023-02-01T04:34:03;-0.70;99.90
7427;DHT22;3755;59.316;18.092;2023-02-01T04:36:30;-0.70;99.90
7427;DHT22;3755;59.316;18.092;2023-02-01T04:39:02;-0.70;99.90
7427;DHT22;3755;59.316;18.092;2023-02-01T04:41:30;-0.60;99.90
7427;DHT22;3755;59.316;18.092;2023-02-01T04:43:58;-0.70;99.90
7427;DHT22;3755;59.316;18.092;2023-02-01T04:46:29;-0.60;99.90
7427;DHT22;3755;59.316;18.092;2023-02-01T04:49:00;-0.70;99.90
7427;DHT22;3755;59.316;18.092;2023-02-01T04:51:31;-0.60;99.90
7427;DHT22;3755;59.316;18.092;2023-02-01T04:53:58;-0.60;99.90
7427;DHT22;3755;59.316;18.092;2023-02-01T04:56:25;-0.60;99.90
7427;DHT22;3755;59.316;18.092;2023-02-01T04:58:53;-0.50;99.90
7427;DHT22;3755;59.316;18.092;2023-02-01T05:01:21;-0.50;99.90
7427;DHT22;3755;59.316;18.092;2023-02-01T05:03:54;-0.60;99.90
7427;DHT22;3755;59.316;18.092;2023-02-01T05:06:24;-0.60;99.90
7427;DHT22;3755;59.316;18.092;2023-02-01T05:08:51;-0.50;99.90
7427;DHT22;3755;59.316;18.092;2023-02-01T05:11:21;-0.40;99.90
7427;DHT22;3755;59.316;18.092;2023-02-01T05:14:06;-0.40;99.90
7427;DHT22;3755;59.316;18.092;2023-02-01T05:16:47;-0.40;99.90
7427;DHT22;3755;59.316;18.092;2023-02-01T05:19:17;-0.40;99.90
7427;DHT22;3755;59.316;18.092;2023-02-01T05:21:45;-0.30;99.90
7427;DHT22;3755;59.316;18.092;2023-02-01T05:24:12;-0.30;99.90
7427;DHT22;3755;59.316;18.092;2023-02-01T05:26:45;-0.30;99.90
7427;DHT22;3755;59.316;18.092;2023-02-01T05:29:14;-0.30;99.90
7427;DHT22;3755;59.316;18.092;2023-02-01T05:31:41;-0.20;99.90
7427;DHT22;3755;59.316;18.092;2023-02-01T05:34:08;-0.20;99.90
7427;DHT22;3755;59.316;18.092;2023-02-01T05:36:37;-0.20;99.90
7427;DHT22;3755;59.316;18.092;2023-02-01T05:39:05;-0.10;99.90
7427;DHT22;3755;59.316;18.092;2023-02-01T05:41:32;0.00;99.90
7427;DHT22;3755;59.316;18.092;2023-02-01T05:43:59;0.00;99.90
7427;DHT22;3755;59.316;18.092;2023-02-01T05:46:27;0.00;99.90
7427;DHT22;3755;59.316;18.092;2023-02-01T05:48:55;0.10;99.90
7427;DHT22;3755;59.316;18.092;2023-02-01T05:51:23;0.00;99.90
7427;DHT22;3755;59.316;18.092;2023-02-01T05:53:54;0.00;99.90
7427;DHT22;3755;59.316;18.092;2023-02-01T05:56:22;0.00;99.90
7427;DHT22;3755;59.316;18.092;2023-02-01T05:58:51;0.00;99.90
7427;DHT22;3755;59.316;18.092;2023-02-01T06:01:27;0.10;99.90
7427;DHT22;3755;59.316;18.092;2023-02-01T06:03:57;0.10;99.90
7427;DHT22;3755;59.316;18.092;2023-02-01T06:06:25;0.10;99.90
7427;DHT22;3755;59.316;18.092;2023-02-01T06:11:59;0.00;99.90
7427;DHT22;3755;59.316;18.092;2023-02-01T06:14:27;0.00;99.90
7427;DHT22;3755;59.316;18.092;2023-02-01T06:16:55;0.00;99.90
7427;DHT22;3755;59.316;18.092;2023-02-01T06:19:24;0.00;99.90
7427;DHT22;3755;59.316;18.092;2023-02-01T06:21:52;0.00;99.90
7427;DHT22;3755;59.316;18.092;2023-02-01T06:24:21;0.10;99.90
7427;DHT22;3755;59.316;18.092;2023-02-01T06:26:50;0.10;99.90
7427;DHT22;3755;59.316;18.092;2023-02-01T06:29:19;0.10;99.90
7427;DHT22;3755;59.316;18.092;2023-02-01T06:31:53;0.00;99.90
7427;DHT22;3755;59.316;18.092;2023-02-01T06:34:22;0.10;99.90
7427;DHT22;3755;59.316;18.092;2023-02-01T06:36:50;0.00;99.90
7427;DHT22;3755;59.316;18.092;2023-02-01T06:39:19;0.20;99.90
7427;DHT22;3755;59.316;18.092;2023-02-01T06:41:48;0.00;99.90
7427;DHT22;3755;59.316;18.092;2023-02-01T06:48:02;0.00;99.90
7427;DHT22;3755;59.316;18.092;2023-02-01T06:50:44;0.10;99.90
7427;DHT22;3755;59.316;18.092;2023-02-01T06:56:03;0.10;99.90
7427;DHT22;3755;59.316;18.092;2023-02-01T06:58:31;0.10;99.90
7427;DHT22;3755;59.316;18.092;2023-02-01T07:01:05;0.10;99.90
7427;DHT22;3755;59.316;18.092;2023-02-01T07:03:51;0.10;99.90
7427;DHT22;3755;59.316;18.092;2023-02-01T07:06:40;0.10;99.90
7427;DHT22;3755;59.316;18.092;2023-02-01T07:09:24;0.20;99.90
7427;DHT22;3755;59.316;18.092;2023-02-01T07:12:06;0.10;99.90
7427;DHT22;3755;59.316;18.092;2023-02-01T07:14:54;0.20;99.90
7427;DHT22;3755;59.316;18.092;2023-02-01T07:17:25;0.20;99.90
7427;DHT22;3755;59.316;18.092;2023-02-01T07:23:17;0.30;99.90
7427;DHT22;3755;59.316;18.092;2023-02-01T07:29:25;0.30;99.90
7427;DHT22;3755;59.316;18.092;2023-02-01T07:32:06;0.30;99.90
7427;DHT22;3755;59.316;18.092;2023-02-01T07:34:36;0.30;99.90
7427;DHT22;3755;59.316;18.092;2023-02-01T07:37:03;0.30;99.90
7427;DHT22;3755;59.316;18.092;2023-02-01T07:42:55;0.20;99.90
7427;DHT22;3755;59.316;18.092;2023-02-01T07:45:37;0.10;99.90
7427;DHT22;3755;59.316;18.092;2023-02-01T07:48:11;0.20;99.90
7427;DHT22;3755;59.316;18.092;2023-02-01T07:50:40;0.20;99.90
7427;DHT22;3755;59.316;18.092;2023-02-01T07:53:07;0.20;99.90
7427;DHT22;3755;59.316;18.092;2023-02-01T07:55:37;0.20;99.90
7427;DHT22;3755;59.316;18.092;2023-02-01T07:58:42;0.20;99.90
7427;DHT22;3755;59.316;18.092;2023-02-01T08:01:15;0.30;99.90
7427;DHT22;3755;59.316;18.092;2023-02-01T08:03:54;0.40;99.90
7427;DHT22;3755;59.316;18.092;2023-02-01T08:06:30;0.40;99.90
7427;DHT22;3755;59.316;18.092;2023-02-01T08:08:58;0.50;99.90
7427;DHT22;3755;59.316;18.092;2023-02-01T08:11:27;0.50;99.90
7427;DHT22;3755;59.316;18.092;2023-02-01T08:17:30;0.60;99.90
7427;DHT22;3755;59.316;18.092;2023-02-01T08:20:00;0.60;99.90
7427;DHT22;3755;59.316;18.092;2023-02-01T08:22:32;0.50;99.90
7427;DHT22;3755;59.316;18.092;2023-02-01T08:25:13;0.60;99.90
7427;DHT22;3755;59.316;18.092;2023-02-01T08:28:20;0.60;99.90
7427;DHT22;3755;59.316;18.092;2023-02-01T08:30:48;0.70;99.90
7427;DHT22;3755;59.316;18.092;2023-02-01T08:33:17;0.60;99.90
7427;DHT22;3755;59.316;18.092;2023-02-01T08:35:45;0.60;99.90
7427;DHT22;3755;59.316;18.092;2023-02-01T08:38:12;0.60;99.90
7427;DHT22;3755;59.316;18.092;2023-02-01T08:40:44;0.60;99.90
7427;DHT22;3755;59.316;18.092;2023-02-01T08:43:19;0.70;99.90
7427;DHT22;3755;59.316;18.092;2023-02-01T08:45:48;0.70;99.90
7427;DHT22;3755;59.316;18.092;2023-02-01T08:48:41;0.80;99.90
7427;DHT22;3755;59.316;18.092;2023-02-01T08:51:23;0.70;99.90
7427;DHT22;3755;59.316;18.092;2023-02-01T08:54:04;0.60;99.90
7427;DHT22;3755;59.316;18.092;2023-02-01T08:56:31;0.60;99.90
7427;DHT22;3755;59.316;18.092;2023-02-01T08:59:39;0.60;99.90
7427;DHT22;3755;59.316;18.092;2023-02-01T09:02:53;0.70;99.90
7427;DHT22;3755;59.316;18.092;2023-02-01T09:05:35;0.70;99.90
7427;DHT22;3755;59.316;18.092;2023-02-01T09:08:35;0.70;99.90
7427;DHT22;3755;59.316;18.092;2023-02-01T09:11:06;0.70;99.90
7427;DHT22;3755;59.316;18.092;2023-02-01T09:13:45;0.70;99.90
7427;DHT22;3755;59.316;18.092;2023-02-01T09:16:27;0.70;99.90
7427;DHT22;3755;59.316;18.092;2023-02-01T09:19:19;0.70;99.90
7427;DHT22;3755;59.316;18.092;2023-02-01T09:22:11;0.70;99.90
7427;DHT22;3755;59.316;18.092;2023-02-01T09:24:52;0.70;99.90
7427;DHT22;3755;59.316;18.092;2023-02-01T09:27:33;0.70;99.90
7427;DHT22;3755;59.316;18.092;2023-02-01T09:30:04;0.70;99.90
7427;DHT22;3755;59.316;18.092;2023-02-01T09:32:33;0.70;99.90
7427;DHT22;3755;59.316;18.092;2023-02-01T09:35:14;0.70;99.90
7427;DHT22;3755;59.316;18.092;2023-02-01T09:37:44;0.70;99.90
7427;DHT22;3755;59.316;18.092;2023-02-01T09:40:14;0.80;99.90
7427;DHT22;3755;59.316;18.092;2023-02-01T09:43:12;0.70;99.90
7427;DHT22;3755;59.316;18.092;2023-02-01T09:46:02;0.70;99.90
7427;DHT22;3755;59.316;18.092;2023-02-01T09:48:34;0.60;99.90
7427;DHT22;3755;59.316;18.092;2023-02-01T09:51:21;0.70;99.90
7427;DHT22;3755;59.316;18.092;2023-02-01T09:54:08;0.70;99.90
7427;DHT22;3755;59.316;18.092;2023-02-01T09:56:55;0.60;99.90
7427;DHT22;3755;59.316;18.092;2023-02-01T09:59:33;0.60;99.90
7427;DHT22;3755;59.316;18.092;2023-02-01T10:02:19;0.60;99.90
7427;DHT22;3755;59.316;18.092;2023-02-01T10:05:03;0.70;99.90
7427;DHT22;3755;59.316;18.092;2023-02-01T10:07:39;0.80;99.90
7427;DHT22;3755;59.316;18.092;2023-02-01T10:10:16;0.80;99.90
7427;DHT22;3755;59.316;18.092;2023-02-01T10:13:09;0.90;99.90
7427;DHT22;3755;59.316;18.092;2023-02-01T10:15:52;0.90;99.90
7427;DHT22;3755;59.316;18.092;2023-02-01T10:22:09;1.00;99.90
7427;DHT22;3755;59.316;18.092;2023-02-01T10:24:41;1.00;99.90
7427;DHT22;3755;59.316;18.092;2023-02-01T10:27:18;1.00;99.90
7427;DHT22;3755;59.316;18.092;2023-02-01T10:29:53;0.90;99.90
7427;DHT22;3755;59.316;18.092;2023-02-01T10:32:24;0.90;99.90
7427;DHT22;3755;59.316;18.092;2023-02-01T10:35:08;0.90;99.90
7427;DHT22;3755;59.316;18.092;2023-02-01T10:37:50;1.00;99.90
7427;DHT22;3755;59.316;18.092;2023-02-01T10:40:21;1.00;99.90
7427;DHT22;3755;59.316;18.092;2023-02-01T10:43:04;1.10;99.90
7427;DHT22;3755;59.316;18.092;2023-02-01T10:45:36;1.10;99.90
7427;DHT22;3755;59.316;18.092;2023-02-01T10:48:15;1.10;99.90
7427;DHT22;3755;59.316;18.092;2023-02-01T10:51:00;1.00;99.90
7427;DHT22;3755;59.316;18.092;2023-02-01T10:53:33;1.00;99.90
7427;DHT22;3755;59.316;18.092;2023-02-01T10:56:23;1.00;99.90
7427;DHT22;3755;59.316;18.092;2023-02-01T11:02:23;1.00;99.90
7427;DHT22;3755;59.316;18.092;2023-02-01T11:08:48;0.70;99.90
7427;DHT22;3755;59.316;18.092;2023-02-01T11:11:56;0.60;99.90
7427;DHT22;3755;59.316;18.092;2023-02-01T11:18:16;0.90;99.90
7427;DHT22;3755;59.316;18.092;2023-02-01T11:21:00;0.90;99.90
7427;DHT22;3755;59.316;18.092;2023-02-01T11:23:30;0.80;99.90
7427;DHT22;3755;59.316;18.092;2023-02-01T11:26:07;0.80;99.90
7427;DHT22;3755;59.316;18.092;2023-02-01T11:31:17;0.70;99.90
7427;DHT22;3755;59.316;18.092;2023-02-01T11:40:27;0.80;99.90
7427;DHT22;3755;59.316;18.092;2023-02-01T11:43:24;0.90;99.90
7427;DHT22;3755;59.316;18.092;2023-02-01T11:46:18;0.90;99.90
7427;DHT22;3755;59.316;18.092;2023-02-01T11:48:53;1.00;99.90
7427;DHT22;3755;59.316;18.092;2023-02-01T11:51:37;1.20;99.90
7427;DHT22;3755;59.316;18.092;2023-02-01T11:54:35;1.30;99.90
7427;DHT22;3755;59.316;18.092;2023-02-01T11:57:38;1.30;99.90
7427;DHT22;3755;59.316;18.092;2023-02-01T12:00:47;1.30;99.90
7427;DHT22;3755;59.316;18.092;2023-02-01T12:06:59;1.30;99.90
7427;DHT22;3755;59.316;18.092;2023-02-01T12:09:53;1.30;99.90
7427;DHT22;3755;59.316;18.092;2023-02-01T12:16:19;1.20;99.90
7427;DHT22;3755;59.316;18.092;2023-02-01T12:19:23;1.10;99.90
7427;DHT22;3755;59.316;18.092;2023-02-01T12:22:27;1.10;99.90
7427;DHT22;3755;59.316;18.092;2023-02-01T12:25:17;1.10;99.90
7427;DHT22;3755;59.316;18.092;2023-02-01T12:28:05;1.10;99.90
7427;DHT22;3755;59.316;18.092;2023-02-01T12:30:58;1.10;99.90
7427;DHT22;3755;59.316;18.092;2023-02-01T12:33:54;1.00;99.90
7427;DHT22;3755;59.316;18.092;2023-02-01T12:36:47;1.00;99.90
7427;DHT22;3755;59.316;18.092;2023-02-01T12:39:29;1.00;99.90
7427;DHT22;3755;59.316;18.092;2023-02-01T12:53:08;0.90;99.90
7427;DHT22;3755;59.316;18.092;2023-02-01T12:55:49;0.80;99.90
7427;DHT22;3755;59.316;18.092;2023-02-01T12:58:21;0.70;99.90
7427;DHT22;3755;59.316;18.092;2023-02-01T13:01:08;0.70;99.90
7427;DHT22;3755;59.316;18.092;2023-02-01T13:03:42;0.60;99.90
7427;DHT22;3755;59.316;18.092;2023-02-01T13:06:15;0.60;99.90
7427;DHT22;3755;59.316;18.092;2023-02-01T13:08:56;0.50;99.90
7427;DHT22;3755;59.316;18.092;2023-02-01T13:11:43;0.60;99.90
7427;DHT22;3755;59.316;18.092;2023-02-01T13:14:22;0.60;99.90
7427;DHT22;3755;59.316;18.092;2023-02-01T13:16:56;0.60;99.90
7427;DHT22;3755;59.316;18.092;2023-02-01T13:19:41;0.50;99.90
7427;DHT22;3755;59.316;18.092;2023-02-01T13:22:13;0.50;99.90
7427;DHT22;3755;59.316;18.092;2023-02-01T13:24:47;0.60;99.90
7427;DHT22;3755;59.316;18.092;2023-02-01T13:27:31;0.60;99.90
7427;DHT22;3755;59.316;18.092;2023-02-01T13:30:02;0.70;99.90
7427;DHT22;3755;59.316;18.092;2023-02-01T13:36:05;0.60;99.90
7427;DHT22;3755;59.316;18.092;2023-02-01T13:42:01;0.50;99.90
7427;DHT22;3755;59.316;18.092;2023-02-01T13:44:41;0.50;99.90
7427;DHT22;3755;59.316;18.092;2023-02-01T13:47:20;0.50;99.90
7427;DHT22;3755;59.316;18.092;2023-02-01T13:49:54;0.50;99.90
7427;DHT22;3755;59.316;18.092;2023-02-01T13:52:41;0.40;99.90
7427;DHT22;3755;59.316;18.092;2023-02-01T13:55:26;0.40;99.90
7427;DHT22;3755;59.316;18.092;2023-02-01T13:58:28;0.50;99.90
7427;DHT22;3755;59.316;18.092;2023-02-01T14:01:34;0.40;99.90
7427;DHT22;3755;59.316;18.092;2023-02-01T14:04:47;0.50;99.90
7427;DHT22;3755;59.316;18.092;2023-02-01T14:07:21;0.50;99.90
7427;DHT22;3755;59.316;18.092;2023-02-01T14:16:42;0.30;99.90
7427;DHT22;3755;59.316;18.092;2023-02-01T14:19:25;0.30;99.90
7427;DHT22;3755;59.316;18.092;2023-02-01T14:21:57;0.30;99.90
7427;DHT22;3755;59.316;18.092;2023-02-01T14:24:39;0.40;99.90
7427;DHT22;3755;59.316;18.092;2023-02-01T14:27:18;0.30;99.90
7427;DHT22;3755;59.316;18.092;2023-02-01T14:30:15;0.20;99.90
7427;DHT22;3755;59.316;18.092;2023-02-01T14:33:18;0.20;99.90
7427;DHT22;3755;59.316;18.092;2023-02-01T14:36:23;0.20;99.90
7427;DHT22;3755;59.316;18.092;2023-02-01T14:39:20;0.20;99.90
7427;DHT22;3755;59.316;18.092;2023-02-01T14:43:01;0.20;99.90
7427;DHT22;3755;59.316;18.092;2023-02-01T14:45:51;0.20;99.90
7427;DHT22;3755;59.316;18.092;2023-02-01T14:48:56;0.10;99.90
7427;DHT22;3755;59.316;18.092;2023-02-01T14:51:45;0.10;99.90
7427;DHT22;3755;59.316;18.092;2023-02-01T14:54:30;0.10;99.90
7427;DHT22;3755;59.316;18.092;2023-02-01T14:57:15;0.00;99.90
7427;DHT22;3755;59.316;18.092;2023-02-01T14:59:46;0.00;99.90
7427;DHT22;3755;59.316;18.092;2023-02-01T15:02:21;0.00;99.90
7427;DHT22;3755;59.316;18.092;2023-02-01T15:05:25;0.00;99.90
7427;DHT22;3755;59.316;18.092;2023-02-01T15:08:16;0.00;99.90
7427;DHT22;3755;59.316;18.092;2023-02-01T15:10:46;0.00;99.90
7427;DHT22;3755;59.316;18.092;2023-02-01T15:13:22;-0.20;99.90
7427;DHT22;3755;59.316;18.092;2023-02-01T15:19:15;0.00;99.90
7427;DHT22;3755;59.316;18.092;2023-02-01T15:32:30;-0.10;99.90
7427;DHT22;3755;59.316;18.092;2023-02-01T15:34:59;0.00;99.90
7427;DHT22;3755;59.316;18.092;2023-02-01T15:37:27;-0.10;99.90
7427;DHT22;3755;59.316;18.092;2023-02-01T15:40:18;-0.10;99.90
7427;DHT22;3755;59.316;18.092;2023-02-01T15:42:51;-0.10;99.90
7427;DHT22;3755;59.316;18.092;2023-02-01T15:45:21;-0.10;99.90
7427;DHT22;3755;59.316;18.092;2023-02-01T15:47:52;-0.10;99.90
7427;DHT22;3755;59.316;18.092;2023-02-01T15:50:21;-0.10;99.90
7427;DHT22;3755;59.316;18.092;2023-02-01T15:52:52;-0.10;99.90
7427;DHT22;3755;59.316;18.092;2023-02-01T15:55:25;-0.10;99.90
7427;DHT22;3755;59.316;18.092;2023-02-01T15:57:57;-0.10;99.90
7427;DHT22;3755;59.316;18.092;2023-02-01T16:00:27;-0.10;99.90
7427;DHT22;3755;59.316;18.092;2023-02-01T16:02:58;-0.10;99.90
7427;DHT22;3755;59.316;18.092;2023-02-01T16:05:34;-0.20;99.90
7427;DHT22;3755;59.316;18.092;2023-02-01T16:08:20;-0.20;99.90
7427;DHT22;3755;59.316;18.092;2023-02-01T16:11:22;-0.20;99.90
7427;DHT22;3755;59.316;18.092;2023-02-01T16:14:03;-0.10;99.90
7427;DHT22;3755;59.316;18.092;2023-02-01T16:16:32;-0.10;99.90
7427;DHT22;3755;59.316;18.092;2023-02-01T16:19:00;-0.10;99.90
7427;DHT22;3755;59.316;18.092;2023-02-01T16:21:32;-0.10;99.90
7427;DHT22;3755;59.316;18.092;2023-02-01T16:24:00;-0.10;99.90
7427;DHT22;3755;59.316;18.092;2023-02-01T16:26:42;-0.10;99.90
7427;DHT22;3755;59.316;18.092;2023-02-01T16:29:23;-0.10;99.90
7427;DHT22;3755;59.316;18.092;2023-02-01T16:32:03;0.20;99.90
7427;DHT22;3755;59.316;18.092;2023-02-01T16:34:33;-0.30;99.90
7427;DHT22;3755;59.316;18.092;2023-02-01T16:37:06;-0.30;99.90
7427;DHT22;3755;59.316;18.092;2023-02-01T16:39:39;-0.30;99.90
7427;DHT22;3755;59.316;18.092;2023-02-01T16:42:11;-0.30;99.90
7427;DHT22;3755;59.316;18.092;2023-02-01T16:44:42;-0.30;99.90
7427;DHT22;3755;59.316;18.092;2023-02-01T16:47:15;-0.30;99.90
7427;DHT22;3755;59.316;18.092;2023-02-01T16:49:51;-0.30;99.90
7427;DHT22;3755;59.316;18.092;2023-02-01T16:52:20;-0.30;99.90
7427;DHT22;3755;59.316;18.092;2023-02-01T16:58:19;-0.30;99.90
7427;DHT22;3755;59.316;18.092;2023-02-01T17:00:48;-0.30;99.90
7427;DHT22;3755;59.316;18.092;2023-02-01T17:03:17;-0.30;99.90
7427;DHT22;3755;59.316;18.092;2023-02-01T17:05:52;-0.30;99.90
7427;DHT22;3755;59.316;18.092;2023-02-01T17:08:32;-0.30;99.90
7427;DHT22;3755;59.316;18.092;2023-02-01T17:11:04;-0.20;99.90
7427;DHT22;3755;59.316;18.092;2023-02-01T17:13:36;-0.20;99.90
7427;DHT22;3755;59.316;18.092;2023-02-01T17:16:21;-0.20;99.90
7427;DHT22;3755;59.316;18.092;2023-02-01T17:18:56;-0.20;99.90
7427;DHT22;3755;59.316;18.092;2023-02-01T17:21:33;-0.10;99.90
7427;DHT22;3755;59.316;18.092;2023-02-01T17:24:02;0.00;99.90
7427;DHT22;3755;59.316;18.092;2023-02-01T17:26:29;0.00;99.90
7427;DHT22;3755;59.316;18.092;2023-02-01T17:28:58;0.00;99.90
7427;DHT22;3755;59.316;18.092;2023-02-01T17:31:29;0.10;99.90
7427;DHT22;3755;59.316;18.092;2023-02-01T17:33:58;0.10;99.90
7427;DHT22;3755;59.316;18.092;2023-02-01T17:36:33;0.10;99.90
7427;DHT22;3755;59.316;18.092;2023-02-01T17:39:02;0.00;99.90
7427;DHT22;3755;59.316;18.092;2023-02-01T17:41:32;0.00;99.90
7427;DHT22;3755;59.316;18.092;2023-02-01T17:44:01;-0.10;99.90
7427;DHT22;3755;59.316;18.092;2023-02-01T17:46:37;-0.10;99.90
7427;DHT22;3755;59.316;18.092;2023-02-01T17:49:04;-0.10;99.90
7427;DHT22;3755;59.316;18.092;2023-02-01T17:51:40;-0.20;99.90
7427;DHT22;3755;59.316;18.092;2023-02-01T17:54:14;-0.20;99.90
7427;DHT22;3755;59.316;18.092;2023-02-01T17:56:52;-0.30;99.90
7427;DHT22;3755;59.316;18.092;2023-02-01T17:59:34;-0.30;99.90
7427;DHT22;3755;59.316;18.092;2023-02-01T18:02:01;-0.30;99.90
7427;DHT22;3755;59.316;18.092;2023-02-01T18:04:29;-0.40;99.90
7427;DHT22;3755;59.316;18.092;2023-02-01T18:06:58;-0.40;99.90
7427;DHT22;3755;59.316;18.092;2023-02-01T18:09:26;-0.30;99.90
7427;DHT22;3755;59.316;18.092;2023-02-01T18:11:54;-0.30;99.90
7427;DHT22;3755;59.316;18.092;2023-02-01T18:14:22;-0.30;99.90
7427;DHT22;3755;59.316;18.092;2023-02-01T18:17:07;-0.30;99.90
7427;DHT22;3755;59.316;18.092;2023-02-01T18:19:38;-0.20;99.90
7427;DHT22;3755;59.316;18.092;2023-02-01T18:22:26;-0.30;99.90
7427;DHT22;3755;59.316;18.092;2023-02-01T18:24:59;-0.30;99.90
7427;DHT22;3755;59.316;18.092;2023-02-01T18:27:27;-0.30;99.90
7427;DHT22;3755;59.316;18.092;2023-02-01T18:29:55;-0.40;99.90
7427;DHT22;3755;59.316;18.092;2023-02-01T18:32:23;-0.40;99.90
7427;DHT22;3755;59.316;18.092;2023-02-01T18:35:01;-0.40;99.90
7427;DHT22;3755;59.316;18.092;2023-02-01T18:38:03;-0.40;99.90